FranceFixed distance
La Grande Course des Templiers
25 Oct2009
Distance
72km
Finishers
1,9251,747 men178 women
Winning time
6:27:13h
Median pace
6.42km/h
Pace distribution
1,925 finishers · 5.21–11.16 km/h · mean 6.66
Every finisher ran the same 72 km course, so these paces are directly comparable.
Histogram of finisher pace. 1,925 finishers ranged from 5.21 to 11.16 kilometres per hour, with a mean of 6.66 and a median of 6.42. The busiest band is 5.5 to 6.0 kilometres per hour, with 463 finishers.
Results
Ranks 1,551–1,600 of 1,925
| Rank | Runner | Time | Pace | Cat. | Placing |
|---|---|---|---|---|---|
| 1551 | Roux, FrancoisFranceMan Courir à fabrègues | 12:29:18h | 5.76 | M45 | 1426th M · 258th M45 |
| 1552 | Soprano, PatrickFranceMan | 12:29:20h | 5.76 | M50 | 1427th M · 130th M50 |
| 1553 | Leccia, JeanFranceMan | 12:30:05h | 5.76 | M45 | 1428th M · 259th M45 |
| 1554 | Duchiron, JeromeFranceMan *Montmorillon | 12:30:09h | 5.76 | M35 | 1429th M · 367th M35 |
| 1555 | Penet, LaurentFranceMan | 12:30:54h | 5.75 | M35 | 1430th M · 368th M35 |
| 1556 | Defretin, DominiqueFranceWoman Athletic Club Tassin | 12:30:56h | 5.75 | W45 | 126th F · 27th W45 |
| 1557 | Dugour, PhilippeFranceMan Es Saint Pathus-Oissery | 12:31:14h | 5.75 | M50 | 1431st M · 131st M50 |
| 1558 | Navarro, Jean-LouisFranceMan | 12:31:23h | 5.75 | M50 | 1432nd M · 132nd M50 |
| 1559 | Nicoleau, PhilippeFranceMan As Saint-Junien | 12:31:32h | 5.75 | M50 | 1433rd M · 133rd M50 |
| 1560 | Courboulin, DominiqueFranceMan | 12:32:31h | 5.74 | M40 | 1434th M · 315th M40 |
| 1561 | Pauchet, GuyFranceMan | 12:32:35h | 5.74 | M50 | 1435th M · 134th M50 |
| 1562 | Cailloux, OlivierFranceMan Canejan Athletisme | 12:33:15h | 5.74 | M45 | 1436th M · 260th M45 |
| 1563 | Penet, PhilippeFranceMan Caf Annecy | 12:34:32h | 5.72 | M40 | 1437th M · 316th M40 |
| 1564 | Geremy, FranckFranceMan | 12:35:09h | 5.72 | M45 | 1438th M · 261st M45 |
| 1565 | Swider, PascalFranceMan Jogging Club Bi | 12:35:39h | 5.72 | M45 | 1439th M · 262nd M45 |
| 1566 | Tardieu, PhilippeFranceMan | 12:35:54h | 5.71 | M35 | 1440th M · 369th M35 |
| 1567 | Gordio, YohannFranceMan | 12:35:58h | 5.71 | M40 | 1441st M · 317th M40 |
| 1568 | Lehmann, CyrilFranceMan | 12:36:01h | 5.71 | M23 | 1442nd M · 298th M23 |
| 1569 | Savary, FranckFranceMan Association Sportive Agne | 12:36:06h | 5.71 | M40 | 1443rd M · 318th M40 |
| 1570 | Santi, DanielFranceMan | 12:36:18h | 5.71 | M45 | 1444th M · 263rd M45 |
| 1571 | Ring, AlainFranceMan CSLG / CAP - Gendarmer... | 12:36:20h | 5.71 | M40 | 1445th M · 319th M40 |
| 1572 | Jazede, OlivierFranceMan Stade Bordelais | 12:36:24h | 5.71 | M45 | 1446th M · 264th M45 |
| 1573 | Gourlay, OlivierFranceMan | 12:36:34h | 5.71 | M40 | 1447th M · 320th M40 |
| 1574 | Decremp, GillesFranceMan | 12:36:35h | 5.71 | M45 | 1448th M · 265th M45 |
| 1575 | Hoerdt, ChristopheFranceMan | 12:36:37h | 5.71 | M40 | 1449th M · 321st M40 |
| 1576 | Cherubini, Jean-PierreFranceMan | 12:36:45h | 5.71 | M40 | 1450th M · 322nd M40 |
| 1577 | Besnard, Jean-PierreFranceMan Orteil En Pointes | 12:36:48h | 5.71 | M65 | 1451st M · 1st M65 |
| 1578 | Cuq, Marie-ClaireFranceWoman | 12:36:51h | 5.71 | W40 | 127th F · 26th W40 |
| 1579 | Para, LucFranceMan Mc Nimes | 12:36:54h | 5.71 | M45 | 1452nd M · 266th M45 |
| 1580 | Logerot, StephaneFranceMan Issy Triathlon | 12:36:54h | 5.71 | MU23 | 1452nd M · 11th MU23 |
| 1581 | Chevrier, EricFranceMan Pass Running | 12:36:55h | 5.71 | M35 | 1454th M · 370th M35 |
| 1582 | Bessiere, MartialFranceMan | 12:37:01h | 5.71 | M23 | 1455th M · 299th M23 |
| 1583 | Clavel, MichelFranceMan E.S.P.M. | 12:37:04h | 5.71 | M40 | 1456th M · 323rd M40 |
| 1584 | Chaumont, JacquelineFranceWoman | 12:37:05h | 5.71 | W45 | 128th F · 28th W45 |
| 1585 | Vezilier, MichelFranceMan | 12:37:06h | 5.71 | M50 | 1457th M · 135th M50 |
| 1586 | Manssens, NicolasFranceMan As Culturelle Arc In | 12:37:12h | 5.71 | M40 | 1458th M · 324th M40 |
| 1587 | Pipart, FrankFranceMan | 12:37:13h | 5.71 | M35 | 1459th M · 371st M35 |
| 1588 | Prezeau, MichelFranceMan Sevre Bocage Ac | 12:37:17h | 5.71 | M55 | 1460th M · 48th M55 |
| 1589 | Larche, Marie-HeleneFranceWoman Entente Athletique Gre... | 12:37:19h | 5.70 | W45 | 129th F · 29th W45 |
| 1590 | Genin L'Hommier, FredericMonacoMan AS Monaco | 12:37:27h | 5.70 | M50 | 1461st M · 136th M50 |
| 1591 | Gilli, ChristianFranceMan | 12:37:28h | 5.70 | M55 | 1462nd M · 49th M55 |
| 1592 | Mailhos, ChristopheFranceMan | 12:37:32h | 5.70 | M40 | 1463rd M · 325th M40 |
| 1593 | Ratier, NicolasFranceMan | 12:37:50h | 5.70 | M40 | 1464th M · 326th M40 |
| 1594 | Jacquelin, PhilippeFranceMan | 12:37:51h | 5.70 | M50 | 1465th M · 137th M50 |
| 1595 | Virefleau, Jean-MarieFranceMan | 12:38:01h | 5.70 | M50 | 1466th M · 138th M50 |
| 1596 | Bleuzen, OlivierFranceMan | 12:38:03h | 5.70 | M40 | 1467th M · 327th M40 |
| 1597 | Sturtz, LaurentFranceMan | 12:38:05h | 5.70 | M35 | 1468th M · 372nd M35 |
| 1598 | Traversi, CarolineFranceWoman | 12:38:17h | 5.70 | W23 | 130th F · 32nd W23 |
| 1599 | Dewaele, NicolasFranceMan | 12:38:18h | 5.70 | M23 | 1469th M · 300th M23 |
| 1600 | Cousson, OlivierFranceMan Es Renault | 12:38:45h | 5.69 | M40 | 1470th M · 328th M40 |
- 1551Roux, FrancoisFranceManCourir à fabrègues1426th M · 258th M45Time12:29:18hPace5.76Cat.M45
- 1552Soprano, PatrickFranceMan1427th M · 130th M50Time12:29:20hPace5.76Cat.M50
- 1553Leccia, JeanFranceMan1428th M · 259th M45Time12:30:05hPace5.76Cat.M45
- 1554Duchiron, JeromeFranceMan*Montmorillon1429th M · 367th M35Time12:30:09hPace5.76Cat.M35
- 1555Penet, LaurentFranceMan1430th M · 368th M35Time12:30:54hPace5.75Cat.M35
- 1556Defretin, DominiqueFranceWomanAthletic Club Tassin126th F · 27th W45Time12:30:56hPace5.75Cat.W45
- 1557Dugour, PhilippeFranceManEs Saint Pathus-Oissery1431st M · 131st M50Time12:31:14hPace5.75Cat.M50
- 1558Navarro, Jean-LouisFranceMan1432nd M · 132nd M50Time12:31:23hPace5.75Cat.M50
- 1559Nicoleau, PhilippeFranceManAs Saint-Junien1433rd M · 133rd M50Time12:31:32hPace5.75Cat.M50
- 1560Courboulin, DominiqueFranceMan1434th M · 315th M40Time12:32:31hPace5.74Cat.M40
- 1561Pauchet, GuyFranceMan1435th M · 134th M50Time12:32:35hPace5.74Cat.M50
- 1562Cailloux, OlivierFranceManCanejan Athletisme1436th M · 260th M45Time12:33:15hPace5.74Cat.M45
- 1563Penet, PhilippeFranceManCaf Annecy1437th M · 316th M40Time12:34:32hPace5.72Cat.M40
- 1564Geremy, FranckFranceMan1438th M · 261st M45Time12:35:09hPace5.72Cat.M45
- 1565Swider, PascalFranceManJogging Club Bi1439th M · 262nd M45Time12:35:39hPace5.72Cat.M45
- 1566Tardieu, PhilippeFranceMan1440th M · 369th M35Time12:35:54hPace5.71Cat.M35
- 1567Gordio, YohannFranceMan1441st M · 317th M40Time12:35:58hPace5.71Cat.M40
- 1568Lehmann, CyrilFranceMan1442nd M · 298th M23Time12:36:01hPace5.71Cat.M23
- 1569Savary, FranckFranceManAssociation Sportive Agne1443rd M · 318th M40Time12:36:06hPace5.71Cat.M40
- 1570Santi, DanielFranceMan1444th M · 263rd M45Time12:36:18hPace5.71Cat.M45
- 1571Ring, AlainFranceManCSLG / CAP - Gendarmer...1445th M · 319th M40Time12:36:20hPace5.71Cat.M40
- 1572Jazede, OlivierFranceManStade Bordelais1446th M · 264th M45Time12:36:24hPace5.71Cat.M45
- 1573Gourlay, OlivierFranceMan1447th M · 320th M40Time12:36:34hPace5.71Cat.M40
- 1574Decremp, GillesFranceMan1448th M · 265th M45Time12:36:35hPace5.71Cat.M45
- 1575Hoerdt, ChristopheFranceMan1449th M · 321st M40Time12:36:37hPace5.71Cat.M40
- 1576Cherubini, Jean-PierreFranceMan1450th M · 322nd M40Time12:36:45hPace5.71Cat.M40
- 1577Besnard, Jean-PierreFranceManOrteil En Pointes1451st M · 1st M65Time12:36:48hPace5.71Cat.M65
- 1578Cuq, Marie-ClaireFranceWoman127th F · 26th W40Time12:36:51hPace5.71Cat.W40
- 1579Para, LucFranceManMc Nimes1452nd M · 266th M45Time12:36:54hPace5.71Cat.M45
- 1580Logerot, StephaneFranceManIssy Triathlon1452nd M · 11th MU23Time12:36:54hPace5.71Cat.MU23
- 1581Chevrier, EricFranceManPass Running1454th M · 370th M35Time12:36:55hPace5.71Cat.M35
- 1582Bessiere, MartialFranceMan1455th M · 299th M23Time12:37:01hPace5.71Cat.M23
- 1583Clavel, MichelFranceManE.S.P.M.1456th M · 323rd M40Time12:37:04hPace5.71Cat.M40
- 1584Chaumont, JacquelineFranceWoman128th F · 28th W45Time12:37:05hPace5.71Cat.W45
- 1585Vezilier, MichelFranceMan1457th M · 135th M50Time12:37:06hPace5.71Cat.M50
- 1586Manssens, NicolasFranceManAs Culturelle Arc In1458th M · 324th M40Time12:37:12hPace5.71Cat.M40
- 1587Pipart, FrankFranceMan1459th M · 371st M35Time12:37:13hPace5.71Cat.M35
- 1588Prezeau, MichelFranceManSevre Bocage Ac1460th M · 48th M55Time12:37:17hPace5.71Cat.M55
- 1589Larche, Marie-HeleneFranceWomanEntente Athletique Gre...129th F · 29th W45Time12:37:19hPace5.70Cat.W45
- 1590Genin L'Hommier, FredericMonacoManAS Monaco1461st M · 136th M50Time12:37:27hPace5.70Cat.M50
- 1591Gilli, ChristianFranceMan1462nd M · 49th M55Time12:37:28hPace5.70Cat.M55
- 1592Mailhos, ChristopheFranceMan1463rd M · 325th M40Time12:37:32hPace5.70Cat.M40
- 1593Ratier, NicolasFranceMan1464th M · 326th M40Time12:37:50hPace5.70Cat.M40
- 1594Jacquelin, PhilippeFranceMan1465th M · 137th M50Time12:37:51hPace5.70Cat.M50
- 1595Virefleau, Jean-MarieFranceMan1466th M · 138th M50Time12:38:01hPace5.70Cat.M50
- 1596Bleuzen, OlivierFranceMan1467th M · 327th M40Time12:38:03hPace5.70Cat.M40
- 1597Sturtz, LaurentFranceMan1468th M · 372nd M35Time12:38:05hPace5.70Cat.M35
- 1598Traversi, CarolineFranceWoman130th F · 32nd W23Time12:38:17hPace5.70Cat.W23
- 1599Dewaele, NicolasFranceMan1469th M · 300th M23Time12:38:18hPace5.70Cat.M23
- 1600Cousson, OlivierFranceManEs Renault1470th M · 328th M40Time12:38:45hPace5.69Cat.M40
Showing ranks 1,551–1,600 of 1,925